Time;durP1;ratioP1;P1;durP2;ratioP2;P2;SDS_P1;SDS_P2;PMS_P1;PMS_P2;Temp;Humidity;BMP_temperature;BMP_pressure;BME280_temperature;BME280_humidity;BME280_pressure;Samples;Min_cycle;Max_cycle;Signal;HPM_P1;HPM_P2
2023/09/15 00:01:18;;;;;;;7.18;3.15;;;15.30;99.90;;;;;;5094795;28;20045;-63
2023/09/15 00:03:44;;;;;;;5.93;2.88;;;15.30;99.90;;;;;;5094852;28;20024;-64
2023/09/15 00:06:09;;;;;;;6.57;2.60;;;15.30;99.90;;;;;;5094939;28;20074;-64
2023/09/15 00:08:35;;;;;;;10.83;2.90;;;15.30;99.90;;;;;;5094898;28;20028;-64
2023/09/15 00:11:00;;;;;;;6.07;2.90;;;15.20;99.90;;;;;;5094920;28;20269;-63
2023/09/15 00:13:27;;;;;;;6.17;2.60;;;15.20;99.90;;;;;;5094774;28;20085;-62
2023/09/15 00:15:52;;;;;;;5.68;2.65;;;15.10;99.90;;;;;;5095185;28;20024;-64
2023/09/15 00:18:18;;;;;;;6.20;2.57;;;15.00;99.90;;;;;;5095594;28;20111;-62
2023/09/15 00:20:44;;;;;;;6.88;3.15;;;15.00;99.90;;;;;;5094524;28;20066;-63
2023/09/15 00:23:10;;;;;;;6.88;2.58;;;15.00;99.90;;;;;;5094528;28;20081;-63
2023/09/15 00:25:36;;;;;;;6.55;2.60;;;15.00;99.90;;;;;;5094684;28;20020;-63
2023/09/15 00:28:03;;;;;;;4.47;2.38;;;15.00;99.90;;;;;;5094730;28;20039;-63
2023/09/15 00:30:30;;;;;;;7.35;2.88;;;14.90;99.90;;;;;;5094939;28;20024;-63
2023/09/15 00:32:56;;;;;;;7.45;2.95;;;14.90;99.90;;;;;;5094471;28;20024;-63
2023/09/15 00:35:28;;;;;;;6.25;2.90;;;14.90;99.90;;;;;;5094254;28;20036;-64
2023/09/15 00:37:57;;;;;;;6.28;2.60;;;14.90;99.90;;;;;;5094726;28;20028;-63
2023/09/15 00:40:24;;;;;;;7.85;2.80;;;14.90;99.90;;;;;;5094741;28;20020;-63
2023/09/15 00:42:51;;;;;;;7.35;3.05;;;14.90;99.90;;;;;;5099458;28;20020;-64
2023/09/15 00:45:19;;;;;;;5.28;2.17;;;14.90;99.90;;;;;;5099090;28;20024;-62
2023/09/15 00:47:58;;;;;;;6.88;2.47;;;14.80;99.90;;;;;;5094455;28;20087;-63
2023/09/15 00:50:31;;;;;;;6.10;2.58;;;14.80;99.90;;;;;;5094033;28;20081;-64
2023/09/15 00:53:01;;;;;;;6.03;2.22;;;14.70;99.90;;;;;;5094230;28;20020;-64
2023/09/15 00:55:29;;;;;;;6.65;2.38;;;14.70;99.90;;;;;;5094371;28;20028;-64
2023/09/15 00:57:56;;;;;;;7.85;2.70;;;14.50;99.90;;;;;;5093928;28;20016;-64
2023/09/15 01:00:22;;;;;;;8.48;2.80;;;14.50;99.90;;;;;;5093886;28;20020;-64
2023/09/15 01:02:49;;;;;;;7.40;3.03;;;14.50;99.90;;;;;;5094105;28;20080;-64
2023/09/15 01:05:21;;;;;;;7.00;2.83;;;14.40;99.90;;;;;;5093655;28;20496;-64
2023/09/15 01:07:49;;;;;;;7.85;2.70;;;14.40;99.90;;;;;;5094002;28;20027;-63
2023/09/15 01:10:14;;;;;;;6.72;2.70;;;14.40;99.90;;;;;;5094087;28;20027;-64
2023/09/15 01:12:43;;;;;;;7.30;2.53;;;14.40;99.90;;;;;;5093756;28;20024;-63
2023/09/15 01:15:09;;;;;;;6.35;3.08;;;14.40;99.90;;;;;;5093900;28;20386;-64
2023/09/15 01:18:05;;;;;;;6.70;3.10;;;14.40;99.90;;;;;;5093710;28;20034;-63
2023/09/15 01:20:52;;;;;;;4.70;2.70;;;14.40;99.90;;;;;;5091868;28;20569;-64
2023/09/15 01:23:32;;;;;;;5.97;2.65;;;14.30;99.90;;;;;;5093592;28;20035;-64
2023/09/15 01:26:06;;;;;;;7.10;3.22;;;14.20;99.90;;;;;;5092914;28;20085;-62
2023/09/15 01:28:59;;;;;;;7.55;3.03;;;14.20;99.90;;;;;;5093645;28;20493;-64
2023/09/15 01:31:25;;;;;;;5.97;2.78;;;14.20;99.90;;;;;;5093609;28;20027;-63
2023/09/15 01:33:51;;;;;;;8.73;2.78;;;14.20;99.90;;;;;;5093786;28;20020;-64
2023/09/15 01:36:17;;;;;;;7.43;2.80;;;14.10;99.90;;;;;;5093403;28;20115;-64
2023/09/15 01:38:43;;;;;;;5.77;2.80;;;14.10;99.90;;;;;;5093187;28;20443;-62
2023/09/15 01:41:08;;;;;;;7.67;2.97;;;14.10;99.90;;;;;;5094006;28;20341;-62
2023/09/15 01:43:34;;;;;;;7.33;2.73;;;14.10;99.90;;;;;;5093293;28;20070;-65
2023/09/15 01:45:59;;;;;;;8.43;3.00;;;14.00;99.90;;;;;;5093188;28;20482;-63
2023/09/15 01:48:26;;;;;;;6.47;2.77;;;14.00;99.90;;;;;;5092974;28;20035;-63
2023/09/15 01:50:51;;;;;;;;;;;13.90;99.90;;;;;;5093135;28;20028;-64
2023/09/15 01:53:17;;;;;;;6.47;3.03;;;14.00;99.90;;;;;;5093816;28;20304;-63
2023/09/15 01:55:43;;;;;;;8.18;3.00;;;13.90;99.90;;;;;;5093648;28;20028;-63
2023/09/15 01:58:09;;;;;;;6.72;3.17;;;13.80;99.90;;;;;;5094283;28;20028;-63
2023/09/15 02:00:36;;;;;;;5.43;2.97;;;13.90;99.90;;;;;;5093529;28;20020;-63
2023/09/15 02:03:03;;;;;;;5.40;2.67;;;13.90;99.90;;;;;;5090825;28;20062;-63
2023/09/15 02:05:28;;;;;;;8.20;3.30;;;13.90;99.90;;;;;;5072964;28;20039;-63
2023/09/15 02:07:54;;;;;;;5.95;2.80;;;13.90;99.90;;;;;;5073210;28;20360;-62
2023/09/15 02:10:19;;;;;;;9.75;3.55;;;13.80;99.90;;;;;;5072862;28;20037;-64
2023/09/15 02:12:45;;;;;;;7.53;2.97;;;13.70;99.90;;;;;;5072753;28;20492;-62
2023/09/15 02:15:11;;;;;;;5.83;3.13;;;13.70;99.90;;;;;;5073436;28;20017;-63
2023/09/15 02:17:38;;;;;;;6.45;3.22;;;13.70;99.90;;;;;;5072753;28;20021;-62
2023/09/15 02:20:09;;;;;;;;;;;13.70;99.90;;;;;;5072922;28;20383;-63
2023/09/15 02:22:35;;;;;;;8.65;3.63;;;13.60;99.90;;;;;;5072876;28;19904;-63
2023/09/15 02:25:00;;;;;;;5.23;3.00;;;13.60;99.90;;;;;;5072914;28;20051;-63
2023/09/15 02:27:26;;;;;;;6.33;3.40;;;13.60;99.90;;;;;;5072985;28;20452;-63
2023/09/15 02:29:51;;;;;;;6.50;2.80;;;13.50;99.90;;;;;;5072583;28;20047;-63
2023/09/15 02:32:17;;;;;;;7.33;3.20;;;13.50;99.90;;;;;;5072654;28;20453;-63
2023/09/15 02:34:42;;;;;;;7.63;3.33;;;13.50;99.90;;;;;;5089606;28;20032;-63
2023/09/15 02:37:08;;;;;;;6.63;3.17;;;13.40;99.90;;;;;;5094043;28;20028;-63
2023/09/15 02:39:35;;;;;;;8.93;3.03;;;13.50;99.90;;;;;;5096674;28;20024;-62
2023/09/15 02:42:00;;;;;;;8.55;3.28;;;13.50;99.90;;;;;;5097202;28;20027;-62
2023/09/15 02:44:26;;;;;;;6.27;3.33;;;13.60;99.90;;;;;;5095338;28;20024;-63
2023/09/15 02:46:51;;;;;;;10.07;3.47;;;13.50;99.90;;;;;;5096546;28;20056;-63
2023/09/15 02:49:17;;;;;;;5.80;3.20;;;13.50;99.90;;;;;;5096456;28;20386;-63
2023/09/15 02:51:42;;;;;;;5.10;3.03;;;13.40;99.90;;;;;;5097314;28;20024;-61
2023/09/15 02:54:08;;;;;;;8.07;3.23;;;13.30;99.90;;;;;;5096364;28;20103;-63
2023/09/15 02:56:33;;;;;;;9.30;3.53;;;13.30;99.90;;;;;;5096507;28;20024;-62
2023/09/15 02:58:59;;;;;;;7.70;3.23;;;13.30;99.90;;;;;;5096364;28;20020;-63
2023/09/15 03:01:24;;;;;;;6.47;3.27;;;13.30;99.90;;;;;;5096597;28;20028;-63
2023/09/15 03:03:50;;;;;;;6.20;3.10;;;13.30;99.90;;;;;;5096225;28;20052;-63
2023/09/15 03:06:15;;;;;;;7.20;3.23;;;13.30;99.90;;;;;;5095991;28;20020;-63
2023/09/15 03:08:41;;;;;;;10.33;3.40;;;13.30;99.90;;;;;;5096107;28;20116;-63
2023/09/15 03:11:14;;;;;;;6.00;3.00;;;13.30;99.90;;;;;;5096048;28;20839;-63
2023/09/15 03:13:41;;;;;;;7.47;3.45;;;13.30;99.90;;;;;;5095926;28;20342;-63
2023/09/15 03:16:08;;;;;;;7.63;2.92;;;13.30;99.90;;;;;;5096408;28;20020;-63
2023/09/15 03:18:34;;;;;;;9.13;3.78;;;13.20;99.90;;;;;;5095561;28;20070;-62
2023/09/15 03:21:01;;;;;;;6.57;3.03;;;13.00;99.90;;;;;;5095675;28;20478;-63
2023/09/15 03:23:27;;;;;;;7.00;3.05;;;13.10;99.90;;;;;;5095902;28;20022;-63
2023/09/15 03:26:02;;;;;;;5.80;3.53;;;13.00;99.90;;;;;;5095986;28;20402;-63
2023/09/15 03:28:30;;;;;;;9.90;3.22;;;13.10;99.90;;;;;;5095762;28;20382;-63
2023/09/15 03:30:56;;;;;;;5.82;3.72;;;13.10;99.90;;;;;;5095552;28;20024;-63
2023/09/15 03:33:22;;;;;;;6.23;3.13;;;13.20;99.90;;;;;;5095702;28;20028;-64
2023/09/15 03:35:47;;;;;;;;;;;13.20;99.90;;;;;;5095697;28;20020;-63
2023/09/15 03:38:13;;;;;;;5.68;3.13;;;13.20;99.90;;;;;;5095417;28;19915;-63
2023/09/15 03:40:38;;;;;;;5.67;3.00;;;13.20;99.90;;;;;;5095441;28;20020;-63
2023/09/15 03:43:04;;;;;;;8.43;3.47;;;13.30;99.90;;;;;;5096482;28;20024;-63
2023/09/15 03:45:30;;;;;;;5.27;3.07;;;13.30;99.90;;;;;;5100606;28;20044;-63
2023/09/15 03:47:55;;;;;;;6.03;3.25;;;13.30;99.90;;;;;;5100888;28;20117;-63
2023/09/15 03:50:21;;;;;;;7.57;5.60;;;13.30;99.90;;;;;;5095862;28;20020;-62
2023/09/15 03:52:47;;;;;;;;;;;13.40;99.90;;;;;;5096216;28;20065;-62
2023/09/15 03:55:13;;;;;;;7.03;3.55;;;13.40;99.90;;;;;;5095581;28;20277;-62
2023/09/15 03:57:38;;;;;;;5.80;3.55;;;13.30;99.90;;;;;;5095360;28;20063;-62
2023/09/15 04:00:05;;;;;;;14.27;8.67;;;13.30;99.90;;;;;;5095072;28;20028;-63
2023/09/15 04:02:30;;;;;;;6.22;3.50;;;13.30;99.90;;;;;;5095339;28;20126;-63
2023/09/15 04:04:56;;;;;;;6.67;3.50;;;13.30;99.90;;;;;;5095422;28;20061;-63
2023/09/15 04:07:22;;;;;;;9.03;4.10;;;13.30;99.90;;;;;;5093556;28;20035;-62
2023/09/15 04:09:48;;;;;;;10.48;4.05;;;13.30;99.90;;;;;;5094840;28;20131;-63
2023/09/15 04:12:13;;;;;;;8.32;4.25;;;13.30;99.90;;;;;;5095037;28;20071;-62
2023/09/15 04:14:39;;;;;;;14.18;8.60;;;13.30;99.90;;;;;;5095025;28;20028;-62
2023/09/15 04:17:05;;;;;;;7.40;3.58;;;13.30;99.90;;;;;;5094932;28;20040;-62
2023/09/15 04:19:31;;;;;;;6.63;4.30;;;13.20;99.90;;;;;;5094191;28;20020;-62
2023/09/15 04:21:58;;;;;;;6.68;3.33;;;13.20;99.90;;;;;;5094838;28;20016;-63
2023/09/15 04:24:25;;;;;;;6.53;3.42;;;13.20;99.90;;;;;;5095118;28;20050;-64
2023/09/15 04:26:50;;;;;;;;;;;13.30;99.90;;;;;;5095694;28;20381;-63
2023/09/15 04:29:16;;;;;;;6.43;3.33;;;13.20;99.90;;;;;;5094459;28;19944;-63
2023/09/15 04:31:41;;;;;;;7.20;3.27;;;13.20;99.90;;;;;;5093239;28;20371;-63
2023/09/15 04:34:07;;;;;;;5.33;3.17;;;13.20;99.90;;;;;;5094856;28;20020;-63
2023/09/15 04:36:32;;;;;;;6.57;3.60;;;13.20;99.90;;;;;;5086232;28;20089;-65
2023/09/15 04:38:58;;;;;;;8.70;3.50;;;13.10;99.90;;;;;;5092812;28;20122;-63
2023/09/15 04:41:24;;;;;;;6.55;3.30;;;13.00;99.90;;;;;;5093482;28;20038;-64
2023/09/15 04:43:51;;;;;;;6.57;3.43;;;13.00;99.90;;;;;;5088546;28;20103;-67
2023/09/15 04:46:18;;;;;;;9.82;3.47;;;12.90;99.90;;;;;;5088151;28;20027;-64
2023/09/15 04:48:44;;;;;;;7.70;3.38;;;12.90;99.90;;;;;;5083591;28;20120;-64
2023/09/15 04:51:10;;;;;;;6.72;3.45;;;12.90;99.90;;;;;;5082083;28;20370;-64
2023/09/15 04:53:36;;;;;;;5.60;3.40;;;12.80;99.90;;;;;;5085350;28;20077;-65
2023/09/15 04:56:03;;;;;;;10.80;3.35;;;12.90;99.90;;;;;;5093364;28;20032;-65
2023/09/15 04:58:29;;;;;;;5.70;2.58;;;12.90;99.90;;;;;;5093853;28;20020;-65
2023/09/15 05:00:59;;;;;;;8.40;3.50;;;12.80;99.90;;;;;;5093291;28;20028;-65
2023/09/15 05:03:24;;;;;;;7.38;3.70;;;12.90;99.90;;;;;;5094182;28;20024;-65
2023/09/15 05:05:51;;;;;;;6.33;3.20;;;12.90;99.90;;;;;;5093893;28;20103;-65
2023/09/15 05:08:18;;;;;;;5.70;3.17;;;12.90;99.90;;;;;;5088151;28;20025;-65
2023/09/15 05:10:47;;;;;;;7.45;3.50;;;12.90;99.90;;;;;;5082321;28;20032;-65
2023/09/15 05:13:13;;;;;;;8.35;3.20;;;13.00;99.90;;;;;;5082708;28;20027;-65
2023/09/15 05:15:38;;;;;;;6.05;3.08;;;12.90;99.90;;;;;;5082306;28;20099;-65
2023/09/15 05:18:04;;;;;;;4.13;2.77;;;12.90;99.90;;;;;;5074123;28;20051;-65
2023/09/15 05:20:29;;;;;;;6.72;3.50;;;12.90;99.90;;;;;;5073368;28;20021;-65
2023/09/15 05:22:55;;;;;;;7.90;3.40;;;12.90;99.90;;;;;;5074327;28;20025;-65
2023/09/15 05:25:20;;;;;;;6.47;3.17;;;13.00;99.90;;;;;;5073493;28;20498;-66
2023/09/15 05:27:46;;;;;;;7.25;3.40;;;13.00;99.90;;;;;;5074354;28;20068;-67
2023/09/15 05:30:12;;;;;;;6.63;3.73;;;13.10;99.90;;;;;;5073103;28;20035;-65
2023/09/15 05:32:38;;;;;;;5.28;3.47;;;13.00;99.90;;;;;;5073647;28;20599;-67
2023/09/15 05:35:05;;;;;;;6.28;3.20;;;13.00;99.90;;;;;;5093741;28;20046;-67
2023/09/15 05:37:31;;;;;;;7.80;3.55;;;13.00;99.90;;;;;;5094848;28;20036;-65
2023/09/15 05:39:57;;;;;;;10.53;3.37;;;13.00;99.90;;;;;;5093581;28;20039;-66
2023/09/15 05:42:22;;;;;;;5.90;3.70;;;13.00;99.90;;;;;;5096281;28;20028;-66
2023/09/15 05:44:49;;;;;;;5.83;3.47;;;13.10;99.90;;;;;;5096853;28;20051;-66
2023/09/15 05:47:14;;;;;;;6.18;3.25;;;13.10;99.90;;;;;;5095529;28;20024;-65
2023/09/15 05:49:40;;;;;;;6.60;3.20;;;13.20;99.90;;;;;;5094363;28;20051;-66
2023/09/15 05:52:06;;;;;;;6.83;3.70;;;13.20;99.90;;;;;;5094982;28;20107;-65
2023/09/15 05:54:32;;;;;;;7.13;3.30;;;13.20;99.90;;;;;;5095601;28;20102;-65
2023/09/15 05:56:59;;;;;;;6.65;3.40;;;13.10;99.90;;;;;;5093309;28;20035;-65
2023/09/15 05:59:24;;;;;;;7.07;3.75;;;13.00;99.90;;;;;;5094299;28;20020;-65
2023/09/15 06:01:50;;;;;;;5.30;3.40;;;13.00;99.90;;;;;;5094533;28;20027;-66
2023/09/15 06:04:15;;;;;;;7.23;3.70;;;13.00;99.90;;;;;;5094896;28;20099;-65
2023/09/15 06:06:41;;;;;;;4.73;3.10;;;13.00;99.90;;;;;;5092579;28;20787;-63
2023/09/15 06:09:07;;;;;;;11.98;3.53;;;13.00;99.90;;;;;;5091609;28;20467;-63
2023/09/15 06:11:32;;;;;;;8.07;3.50;;;13.00;99.90;;;;;;5093899;28;20043;-62
2023/09/15 06:13:58;;;;;;;5.73;2.83;;;13.10;99.90;;;;;;5095888;28;20067;-63
2023/09/15 06:16:23;;;;;;;6.43;3.20;;;13.20;99.90;;;;;;5097717;28;20032;-63
2023/09/15 06:18:49;;;;;;;7.40;3.27;;;13.20;99.90;;;;;;5096935;28;20054;-63
2023/09/15 06:21:14;;;;;;;4.80;3.40;;;13.20;99.90;;;;;;5096973;28;20424;-63
2023/09/15 06:23:40;;;;;;;12.38;3.70;;;13.20;99.90;;;;;;5097411;28;20031;-63
2023/09/15 06:26:07;;;;;;;8.43;3.63;;;13.30;99.90;;;;;;5097192;28;20063;-61
2023/09/15 06:28:32;;;;;;;;;;;13.30;99.90;;;;;;5097248;28;20071;-62
2023/09/15 06:30:59;;;;;;;6.93;4.03;;;13.40;99.90;;;;;;5096930;28;20366;-63
2023/09/15 06:33:24;;;;;;;6.47;3.42;;;13.40;99.90;;;;;;5096862;28;20031;-62
2023/09/15 06:35:50;;;;;;;5.50;3.10;;;13.60;99.90;;;;;;5097048;28;20028;-62
2023/09/15 06:38:15;;;;;;;7.32;3.40;;;13.60;99.90;;;;;;5096495;28;20051;-62
2023/09/15 06:40:41;;;;;;;5.27;3.20;;;13.70;99.90;;;;;;5096781;28;20028;-62
2023/09/15 06:43:07;;;;;;;5.33;3.17;;;13.80;99.90;;;;;;5096826;28;20740;-64
2023/09/15 06:45:34;;;;;;;5.55;3.22;;;13.80;99.90;;;;;;5097313;28;20024;-62
2023/09/15 06:47:59;;;;;;;;;;;13.80;99.90;;;;;;5100581;28;20032;-64
2023/09/15 06:50:26;;;;;;;7.93;3.70;;;13.80;99.90;;;;;;5099704;28;19990;-62
2023/09/15 06:52:52;;;;;;;;;;;13.90;99.90;;;;;;5097280;28;20032;-62
2023/09/15 06:55:17;;;;;;;8.80;3.47;;;13.90;99.90;;;;;;5095200;28;19958;-62
2023/09/15 06:57:43;;;;;;;7.90;4.17;;;14.10;99.90;;;;;;5094936;28;20028;-61
2023/09/15 07:00:09;;;;;;;4.73;3.30;;;14.10;99.90;;;;;;5096226;28;20039;-63
2023/09/15 07:02:34;;;;;;;6.45;3.50;;;14.20;99.90;;;;;;5096063;28;20023;-62
2023/09/15 07:05:00;;;;;;;4.82;3.25;;;14.30;99.90;;;;;;5096840;28;20020;-62
2023/09/15 07:07:25;;;;;;;8.83;4.03;;;14.40;99.90;;;;;;5096421;28;20031;-62
2023/09/15 07:09:51;;;;;;;6.87;3.70;;;14.50;99.90;;;;;;5096306;28;20587;-63
2023/09/15 07:12:17;;;;;;;6.97;3.83;;;14.60;99.90;;;;;;5096514;28;20273;-64
2023/09/15 07:14:42;;;;;;;5.72;3.38;;;14.70;99.90;;;;;;5095997;28;20266;-64
2023/09/15 07:17:08;;;;;;;6.13;3.20;;;14.80;99.90;;;;;;5095987;28;20032;-63
2023/09/15 07:19:33;;;;;;;8.30;3.83;;;14.90;99.90;;;;;;5096130;28;20078;-65
2023/09/15 07:21:59;;;;;;;5.93;3.20;;;15.00;99.90;;;;;;5095778;28;20024;-64
2023/09/15 07:24:25;;;;;;;6.37;4.03;;;15.10;99.90;;;;;;5094575;28;20258;-64
2023/09/15 07:26:50;;;;;;;6.53;3.70;;;15.20;99.90;;;;;;5096353;28;20110;-63
2023/09/15 07:29:16;;;;;;;6.20;3.50;;;15.30;99.90;;;;;;5095842;28;20024;-64
2023/09/15 07:31:42;;;;;;;7.45;3.78;;;15.40;99.90;;;;;;5096021;28;20026;-63
2023/09/15 07:34:09;;;;;;;6.75;3.80;;;15.50;99.90;;;;;;5095592;28;20030;-64
2023/09/15 07:36:34;;;;;;;11.30;4.13;;;15.60;99.90;;;;;;5095220;28;20020;-64
2023/09/15 07:39:00;;;;;;;8.67;3.97;;;15.70;99.90;;;;;;5095282;28;20483;-64
2023/09/15 07:41:25;;;;;;;7.60;3.85;;;15.80;99.90;;;;;;5095410;28;20024;-64
2023/09/15 07:43:55;;;;;;;8.27;3.47;;;15.90;99.90;;;;;;5094038;28;20032;-62
2023/09/15 07:46:21;;;;;;;7.38;3.80;;;16.00;99.90;;;;;;5095478;28;20467;-63
2023/09/15 07:48:46;;;;;;;7.53;3.83;;;16.20;99.90;;;;;;5095182;28;20039;-63
2023/09/15 07:51:13;;;;;;;13.85;4.13;;;16.30;99.90;;;;;;5093561;28;20149;-64
2023/09/15 07:53:39;;;;;;;7.07;3.50;;;16.40;99.90;;;;;;5095130;28;20107;-64
2023/09/15 07:56:05;;;;;;;8.13;3.42;;;16.40;99.90;;;;;;5096445;28;20063;-63
2023/09/15 07:58:30;;;;;;;8.98;3.95;;;16.50;99.90;;;;;;5096676;28;20460;-64
2023/09/15 08:00:57;;;;;;;9.77;3.42;;;16.50;99.90;;;;;;5099068;28;20027;-64
2023/09/15 08:03:23;;;;;;;6.93;3.22;;;16.60;99.90;;;;;;5094743;28;20085;-63
2023/09/15 08:05:49;;;;;;;7.63;3.25;;;16.70;99.90;;;;;;5097144;28;20020;-64
2023/09/15 08:08:14;;;;;;;9.18;3.13;;;16.90;99.90;;;;;;5096131;28;20394;-62
2023/09/15 08:10:40;;;;;;;6.17;2.87;;;16.90;99.90;;;;;;5095809;28;20036;-63
2023/09/15 08:13:05;;;;;;;5.40;3.00;;;17.10;99.90;;;;;;5095347;28;20024;-63
2023/09/15 08:15:31;;;;;;;5.13;3.30;;;17.30;99.90;;;;;;5094748;28;20028;-63
2023/09/15 08:17:57;;;;;;;8.90;3.37;;;17.30;99.90;;;;;;5094435;28;20398;-63
2023/09/15 08:20:23;;;;;;;7.85;3.20;;;17.40;99.90;;;;;;5094464;28;20031;-65
2023/09/15 08:22:49;;;;;;;10.13;3.60;;;17.60;99.90;;;;;;5094628;28;20386;-64
2023/09/15 08:25:14;;;;;;;6.55;3.67;;;17.70;99.90;;;;;;5094581;28;20030;-65
2023/09/15 08:27:43;;;;;;;8.90;3.70;;;17.80;99.90;;;;;;5094776;28;20036;-64
2023/09/15 08:30:09;;;;;;;7.70;3.70;;;17.90;99.90;;;;;;5094623;28;20020;-64
2023/09/15 08:32:35;;;;;;;5.25;3.42;;;18.10;99.90;;;;;;5094602;28;20396;-64
2023/09/15 08:35:00;;;;;;;10.70;3.25;;;18.30;99.90;;;;;;5093994;28;20024;-64
2023/09/15 08:37:26;;;;;;;6.03;3.30;;;18.40;99.90;;;;;;5094169;28;20073;-66
2023/09/15 08:39:52;;;;;;;7.38;3.50;;;18.70;99.90;;;;;;5093997;28;20066;-64
2023/09/15 08:42:26;;;;;;;8.57;3.78;;;19.80;99.90;;;;;;5094252;28;20040;-64
2023/09/15 08:44:53;;;;;;;5.80;3.40;;;22.80;99.90;;;;;;5094148;28;20043;-64
2023/09/15 08:47:20;;;;;;;6.85;2.90;;;25.60;99.50;;;;;;5093940;28;20487;-62
2023/09/15 08:49:46;;;;;;;8.48;3.05;;;28.20;95.30;;;;;;5093698;28;20055;-65
2023/09/15 08:52:17;;;;;;;6.22;3.05;;;30.30;92.10;;;;;;5093929;28;20068;-64
2023/09/15 08:54:43;;;;;;;5.57;3.30;;;32.10;88.20;;;;;;5093900;28;20032;-63
2023/09/15 08:57:10;;;;;;;5.63;3.30;;;33.30;83.20;;;;;;5093818;28;20028;-63
2023/09/15 08:59:37;;;;;;;5.88;3.25;;;33.50;80.70;;;;;;5093750;28;20455;-63
2023/09/15 09:02:03;;;;;;;5.63;3.10;;;33.20;79.50;;;;;;5093793;28;20024;-63
2023/09/15 09:04:29;;;;;;;7.25;3.15;;;32.80;79.40;;;;;;5093946;28;20031;-63
2023/09/15 09:06:55;;;;;;;3.95;2.95;;;32.70;80.10;;;;;;5093658;28;20016;-63
2023/09/15 09:09:23;;;;;;;6.72;3.20;;;33.90;78.10;;;;;;5092210;28;20059;-63
2023/09/15 09:11:49;;;;;;;4.63;2.95;;;35.30;76.20;;;;;;5093923;28;20484;-63
2023/09/15 09:14:15;;;;;;;6.28;3.25;;;36.50;73.20;;;;;;5093770;28;20023;-64
2023/09/15 09:16:47;;;;;;;7.97;3.10;;;37.00;71.10;;;;;;5093631;28;20139;-64
2023/09/15 09:19:12;;;;;;;6.78;3.17;;;37.00;70.10;;;;;;5093238;28;20031;-64
2023/09/15 09:21:39;;;;;;;7.10;2.88;;;37.50;69.50;;;;;;5093653;28;20027;-64
2023/09/15 09:24:05;;;;;;;5.50;2.70;;;37.20;69.20;;;;;;5093354;28;20501;-64
2023/09/15 09:26:31;;;;;;;4.25;2.90;;;36.30;68.80;;;;;;5093166;28;20470;-63
2023/09/15 09:28:57;;;;;;;3.75;2.58;;;36.20;69.30;;;;;;5093471;28;20089;-64
2023/09/15 09:31:24;;;;;;;4.47;2.30;;;36.40;68.80;;;;;;5093629;28;20386;-63
2023/09/15 09:33:50;;;;;;;4.07;2.58;;;36.70;68.50;;;;;;5093590;28;20030;-64
2023/09/15 09:36:17;;;;;;;3.55;2.60;;;36.80;68.10;;;;;;5094104;28;20389;-64
2023/09/15 09:38:44;;;;;;;6.38;2.72;;;36.70;67.90;;;;;;5092993;28;20055;-64
2023/09/15 09:41:11;;;;;;;5.97;2.80;;;36.60;67.80;;;;;;5093123;28;20039;-64
2023/09/15 09:43:42;;;;;;;3.53;2.63;;;36.90;67.70;;;;;;5093368;28;20122;-63
2023/09/15 09:46:09;;;;;;;3.60;2.70;;;37.20;67.00;;;;;;5091501;28;20056;-63
2023/09/15 09:48:35;;;;;;;4.57;2.90;;;37.60;66.50;;;;;;5093253;28;20024;-63
2023/09/15 09:51:02;;;;;;;5.82;2.90;;;37.90;66.30;;;;;;5094508;28;20031;-63
2023/09/15 09:53:29;;;;;;;6.93;3.00;;;37.50;66.60;;;;;;5094870;28;20026;-63
2023/09/15 09:55:55;;;;;;;5.88;2.95;;;36.70;66.80;;;;;;5093730;28;20030;-63
2023/09/15 09:58:24;;;;;;;3.83;3.05;;;36.60;67.20;;;;;;5094357;28;20030;-63
2023/09/15 10:00:50;;;;;;;4.10;3.10;;;36.90;67.00;;;;;;5093236;28;20024;-64
2023/09/15 10:03:17;;;;;;;5.60;3.00;;;36.60;67.00;;;;;;5093192;28;20019;-63
2023/09/15 10:05:43;;;;;;;3.25;2.90;;;36.60;67.50;;;;;;5092647;28;20020;-63
2023/09/15 10:08:09;;;;;;;3.78;2.83;;;36.80;66.90;;;;;;5093137;28;20070;-63
2023/09/15 10:10:40;;;;;;;3.83;3.20;;;36.10;67.20;;;;;;5092948;28;20020;-62
2023/09/15 10:13:07;;;;;;;5.93;3.00;;;35.60;67.70;;;;;;5092816;28;20028;-63
2023/09/15 10:15:34;;;;;;;3.47;2.85;;;34.60;69.20;;;;;;5093350;28;20048;-64
2023/09/15 10:18:01;;;;;;;3.42;2.97;;;33.70;70.50;;;;;;5093212;28;20031;-64
2023/09/15 10:20:27;;;;;;;6.18;3.20;;;33.40;71.10;;;;;;5091332;28;20024;-63
2023/09/15 10:22:54;;;;;;;3.45;2.90;;;33.10;71.60;;;;;;5092767;28;20107;-63
2023/09/15 10:25:21;;;;;;;4.65;3.05;;;33.40;71.50;;;;;;5093225;28;20016;-64
2023/09/15 10:27:47;;;;;;;5.63;2.55;;;34.00;71.00;;;;;;5094032;28;20054;-63
2023/09/15 10:30:13;;;;;;;3.63;3.10;;;34.50;69.70;;;;;;5091720;28;20033;-66
2023/09/15 10:32:39;;;;;;;4.63;2.88;;;33.80;70.40;;;;;;5091610;28;20110;-65
2023/09/15 10:35:06;;;;;;;3.60;2.90;;;33.70;70.60;;;;;;5092789;28;20035;-63
2023/09/15 10:37:33;;;;;;;3.90;3.13;;;33.90;70.40;;;;;;5092925;28;20032;-63
2023/09/15 10:39:59;;;;;;;5.13;3.13;;;33.50;71.20;;;;;;5092582;28;20020;-63
2023/09/15 10:42:26;;;;;;;4.15;2.72;;;33.60;70.90;;;;;;5093329;28;20022;-63
2023/09/15 10:44:52;;;;;;;4.50;2.97;;;33.20;71.50;;;;;;5093789;28;20025;-63
2023/09/15 10:47:18;;;;;;;5.63;3.40;;;33.80;71.30;;;;;;5093363;28;20039;-64
2023/09/15 10:49:53;;;;;;;4.72;2.50;;;34.60;70.00;;;;;;5103994;23;20045;-70
2023/09/15 10:52:39;;;;;;;3.00;2.70;;;34.70;69.40;;;;;;5075831;28;20036;-70
2023/09/15 10:55:05;;;;;;;5.10;3.00;;;35.80;68.30;;;;;;5072890;28;20440;-70
2023/09/15 10:57:35;;;;;;;3.60;2.70;;;36.10;67.50;;;;;;5072674;28;20028;-70
2023/09/15 11:00:06;;;;;;;6.47;2.90;;;35.40;67.80;;;;;;5075907;28;20023;-69
2023/09/15 11:02:34;;;;;;;5.07;3.28;;;35.50;68.50;;;;;;5075792;28;20121;-70
2023/09/15 11:05:00;;;;;;;3.13;2.58;;;34.20;69.00;;;;;;5056839;28;20025;-70
2023/09/15 11:07:28;;;;;;;5.18;3.20;;;32.10;71.40;;;;;;5075831;28;20021;-70
2023/09/15 11:09:57;;;;;;;5.25;3.10;;;30.30;74.60;;;;;;5076063;28;20047;-70
2023/09/15 11:12:23;;;;;;;6.13;2.78;;;28.80;77.90;;;;;;5057456;28;20033;-70
2023/09/15 11:14:49;;;;;;;5.03;2.92;;;27.50;80.30;;;;;;5075787;28;20066;-69
2023/09/15 11:17:17;;;;;;;5.45;2.92;;;26.80;82.50;;;;;;5075668;28;20033;-70
2023/09/15 11:19:43;;;;;;;5.88;3.05;;;26.40;83.50;;;;;;5057576;28;20020;-70
2023/09/15 11:22:11;;;;;;;6.38;3.10;;;26.10;85.20;;;;;;5058163;28;20074;-71
2023/09/15 11:24:37;;;;;;;4.47;2.90;;;25.90;86.20;;;;;;5075580;28;20021;-71
2023/09/15 11:27:02;;;;;;;;;;;25.60;86.80;;;;;;5075950;28;20072;-71
2023/09/15 11:29:30;;;;;;;5.18;3.08;;;25.60;87.20;;;;;;5057248;28;19904;-70
2023/09/15 11:31:57;;;;;;;9.07;3.60;;;25.60;87.10;;;;;;5075496;28;20527;-70
2023/09/15 11:34:23;;;;;;;6.72;3.55;;;25.40;88.60;;;;;;5075271;28;20103;-69
2023/09/15 11:36:50;;;;;;;4.85;3.35;;;25.40;88.50;;;;;;5057120;28;20106;-70
2023/09/15 11:39:16;;;;;;;5.63;3.80;;;25.40;88.70;;;;;;5075103;28;20153;-70
2023/09/15 11:41:54;;;;;;;;;;;25.50;88.70;;;;;;5075672;28;20059;-70
2023/09/15 11:44:26;;;;;;;7.07;4.63;;;25.40;88.80;;;;;;5075880;28;19955;-70
2023/09/15 11:46:55;;;;;;;3.45;3.00;;;25.40;89.40;;;;;;5075194;28;20497;-69
2023/09/15 11:49:22;;;;;;;4.18;3.55;;;25.30;89.30;;;;;;5056831;28;20034;-69
2023/09/15 11:51:49;;;;;;;3.95;3.20;;;25.30;89.40;;;;;;5074890;28;20044;-71
2023/09/15 11:54:15;;;;;;;4.30;3.30;;;25.30;89.70;;;;;;5074985;28;20028;-69
2023/09/15 11:56:42;;;;;;;5.53;3.20;;;25.40;89.70;;;;;;5056653;28;20059;-70
2023/09/15 11:59:08;;;;;;;6.47;3.38;;;25.40;90.00;;;;;;5074912;28;20028;-70
2023/09/15 12:01:34;;;;;;;;;;;25.30;89.70;;;;;;5057577;28;20086;-71
2023/09/15 12:04:01;;;;;;;4.70;3.30;;;25.20;89.90;;;;;;5056639;28;19958;-71
2023/09/15 12:06:27;;;;;;;4.72;3.20;;;25.30;90.00;;;;;;5074874;28;20020;-70
2023/09/15 12:08:52;;;;;;;;;;;25.30;90.00;;;;;;5057532;28;20028;-70
2023/09/15 12:11:19;;;;;;;4.55;3.05;;;25.40;90.10;;;;;;5074495;28;19999;-70
2023/09/15 12:13:52;;;;;;;9.75;3.45;;;25.40;90.10;;;;;;5057065;28;20069;-70
2023/09/15 12:16:19;;;;;;;4.55;3.25;;;25.40;90.00;;;;;;5075216;28;20063;-70
2023/09/15 12:18:46;;;;;;;5.00;3.40;;;25.50;90.10;;;;;;5054452;28;20107;-70
2023/09/15 12:21:12;;;;;;;4.25;3.47;;;25.60;90.00;;;;;;5073318;28;20486;-69
2023/09/15 12:23:38;;;;;;;3.40;3.08;;;25.50;89.90;;;;;;5072761;28;20146;-70
2023/09/15 12:26:03;;;;;;;;;;;25.60;90.30;;;;;;5074236;28;20058;-70
2023/09/15 12:28:29;;;;;;;5.95;3.67;;;25.60;89.60;;;;;;5055721;28;20359;-69
2023/09/15 12:31:01;;;;;;;;;;;25.60;90.20;;;;;;5074147;28;20035;-70
2023/09/15 12:33:29;;;;;;;3.15;2.85;;;25.60;89.70;;;;;;5056700;28;19950;-71
2023/09/15 12:35:56;;;;;;;6.57;3.60;;;25.70;89.90;;;;;;5056364;28;20021;-70
2023/09/15 12:38:21;;;;;;;5.20;3.38;;;25.80;89.30;;;;;;5056278;28;20103;-71
2023/09/15 12:40:48;;;;;;;;;;;25.80;89.60;;;;;;5056604;28;20504;-70
2023/09/15 12:43:15;;;;;;;6.27;3.40;;;25.80;88.90;;;;;;5056534;28;19904;-71
2023/09/15 12:45:41;;;;;;;5.07;3.70;;;25.80;89.40;;;;;;5056842;28;20035;-72
2023/09/15 12:48:06;;;;;;;;;;;25.90;89.60;;;;;;5075175;28;20025;-72